sensor_id;sensor_type;location;lat;lon;timestamp;P1;durP1;ratioP1;P2;durP2;ratioP2
71759;SDS011;59919;48.112;16.280;2023-06-05T00:01:51;2.63;;;2.22;;
71759;SDS011;59919;48.112;16.280;2023-06-05T00:04:25;2.42;;;1.98;;
71759;SDS011;59919;48.112;16.280;2023-06-05T00:06:58;2.10;;;1.90;;
71759;SDS011;59919;48.112;16.280;2023-06-05T00:09:32;2.75;;;2.20;;
71759;SDS011;59919;48.112;16.280;2023-06-05T00:12:06;2.92;;;2.00;;
71759;SDS011;59919;48.112;16.280;2023-06-05T00:14:38;2.80;;;2.10;;
71759;SDS011;59919;48.112;16.280;2023-06-05T00:17:11;2.65;;;2.20;;
71759;SDS011;59919;48.112;16.280;2023-06-05T00:19:42;2.88;;;2.10;;
71759;SDS011;59919;48.112;16.280;2023-06-05T00:22:18;2.65;;;2.15;;
71759;SDS011;59919;48.112;16.280;2023-06-05T00:24:50;2.20;;;2.00;;
71759;SDS011;59919;48.112;16.280;2023-06-05T00:27:21;2.55;;;1.95;;
71759;SDS011;59919;48.112;16.280;2023-06-05T00:29:53;2.53;;;2.20;;
71759;SDS011;59919;48.112;16.280;2023-06-05T00:32:30;2.45;;;1.95;;
71759;SDS011;59919;48.112;16.280;2023-06-05T00:35:02;3.28;;;2.20;;
71759;SDS011;59919;48.112;16.280;2023-06-05T00:37:34;2.40;;;2.20;;
71759;SDS011;59919;48.112;16.280;2023-06-05T00:40:14;2.40;;;2.00;;
71759;SDS011;59919;48.112;16.280;2023-06-05T00:42:45;2.10;;;1.80;;
71759;SDS011;59919;48.112;16.280;2023-06-05T00:45:23;2.95;;;2.20;;
71759;SDS011;59919;48.112;16.280;2023-06-05T00:47:54;3.35;;;2.10;;
71759;SDS011;59919;48.112;16.280;2023-06-05T00:50:31;2.10;;;1.90;;
71759;SDS011;59919;48.112;16.280;2023-06-05T00:53:03;3.15;;;2.20;;
71759;SDS011;59919;48.112;16.280;2023-06-05T00:55:39;2.80;;;2.10;;
71759;SDS011;59919;48.112;16.280;2023-06-05T00:58:12;2.33;;;1.77;;
71759;SDS011;59919;48.112;16.280;2023-06-05T01:00:44;2.90;;;1.98;;
71759;SDS011;59919;48.112;16.280;2023-06-05T01:03:19;3.05;;;2.42;;
71759;SDS011;59919;48.112;16.280;2023-06-05T01:06:02;2.42;;;2.20;;
71759;SDS011;59919;48.112;16.280;2023-06-05T01:08:36;2.53;;;2.30;;
71759;SDS011;59919;48.112;16.280;2023-06-05T01:11:27;3.17;;;2.40;;
71759;SDS011;59919;48.112;16.280;2023-06-05T01:16:59;1.95;;;1.80;;
71759;SDS011;59919;48.112;16.280;2023-06-05T01:19:33;2.50;;;1.98;;
71759;SDS011;59919;48.112;16.280;2023-06-05T01:22:04;3.80;;;2.33;;
71759;SDS011;59919;48.112;16.280;2023-06-05T01:24:38;2.78;;;1.95;;
71759;SDS011;59919;48.112;16.280;2023-06-05T01:27:12;2.60;;;2.40;;
71759;SDS011;59919;48.112;16.280;2023-06-05T01:30:05;2.35;;;2.15;;
71759;SDS011;59919;48.112;16.280;2023-06-05T01:32:55;2.25;;;1.85;;
71759;SDS011;59919;48.112;16.280;2023-06-05T01:35:32;1.90;;;1.80;;
71759;SDS011;59919;48.112;16.280;2023-06-05T01:38:05;2.83;;;1.90;;
71759;SDS011;59919;48.112;16.280;2023-06-05T01:40:40;2.75;;;2.30;;
71759;SDS011;59919;48.112;16.280;2023-06-05T01:43:11;2.08;;;1.88;;
71759;SDS011;59919;48.112;16.280;2023-06-05T01:45:43;2.67;;;2.20;;
71759;SDS011;59919;48.112;16.280;2023-06-05T01:48:17;2.10;;;1.80;;
71759;SDS011;59919;48.112;16.280;2023-06-05T01:50:49;2.88;;;2.30;;
71759;SDS011;59919;48.112;16.280;2023-06-05T01:53:23;2.50;;;2.10;;
71759;SDS011;59919;48.112;16.280;2023-06-05T01:55:55;2.35;;;2.13;;
71759;SDS011;59919;48.112;16.280;2023-06-05T01:58:30;2.40;;;2.20;;
71759;SDS011;59919;48.112;16.280;2023-06-05T02:01:06;3.28;;;2.03;;
71759;SDS011;59919;48.112;16.280;2023-06-05T02:03:42;2.88;;;2.25;;
71759;SDS011;59919;48.112;16.280;2023-06-05T02:06:18;2.30;;;2.10;;
71759;SDS011;59919;48.112;16.280;2023-06-05T02:08:49;2.40;;;2.10;;
71759;SDS011;59919;48.112;16.280;2023-06-05T02:11:23;2.33;;;2.08;;
71759;SDS011;59919;48.112;16.280;2023-06-05T02:13:56;2.30;;;1.83;;
71759;SDS011;59919;48.112;16.280;2023-06-05T02:16:30;2.58;;;2.20;;
71759;SDS011;59919;48.112;16.280;2023-06-05T02:19:04;2.47;;;2.10;;
71759;SDS011;59919;48.112;16.280;2023-06-05T02:21:37;2.20;;;2.00;;
71759;SDS011;59919;48.112;16.280;2023-06-05T02:24:09;2.38;;;2.17;;
71759;SDS011;59919;48.112;16.280;2023-06-05T02:26:40;2.70;;;2.38;;
71759;SDS011;59919;48.112;16.280;2023-06-05T02:29:12;2.85;;;2.30;;
71759;SDS011;59919;48.112;16.280;2023-06-05T02:31:49;2.20;;;2.00;;
71759;SDS011;59919;48.112;16.280;2023-06-05T02:34:23;2.30;;;2.10;;
71759;SDS011;59919;48.112;16.280;2023-06-05T02:36:57;2.67;;;2.10;;
71759;SDS011;59919;48.112;16.280;2023-06-05T02:39:31;2.38;;;2.08;;
71759;SDS011;59919;48.112;16.280;2023-06-05T02:42:06;3.63;;;2.45;;
71759;SDS011;59919;48.112;16.280;2023-06-05T02:44:39;2.78;;;2.40;;
71759;SDS011;59919;48.112;16.280;2023-06-05T02:47:10;2.30;;;1.95;;
71759;SDS011;59919;48.112;16.280;2023-06-05T02:49:43;2.53;;;2.30;;
71759;SDS011;59919;48.112;16.280;2023-06-05T02:52:17;3.70;;;2.35;;
71759;SDS011;59919;48.112;16.280;2023-06-05T02:54:48;2.85;;;2.33;;
71759;SDS011;59919;48.112;16.280;2023-06-05T02:57:23;2.95;;;2.40;;
71759;SDS011;59919;48.112;16.280;2023-06-05T02:59:58;2.88;;;2.50;;
71759;SDS011;59919;48.112;16.280;2023-06-05T03:02:29;2.60;;;2.20;;
71759;SDS011;59919;48.112;16.280;2023-06-05T03:05:03;4.13;;;2.55;;
71759;SDS011;59919;48.112;16.280;2023-06-05T03:07:38;2.63;;;2.40;;
71759;SDS011;59919;48.112;16.280;2023-06-05T03:10:10;3.60;;;2.40;;
71759;SDS011;59919;48.112;16.280;2023-06-05T03:12:43;2.80;;;2.60;;
71759;SDS011;59919;48.112;16.280;2023-06-05T03:15:14;3.05;;;2.50;;
71759;SDS011;59919;48.112;16.280;2023-06-05T03:17:49;2.50;;;2.30;;
71759;SDS011;59919;48.112;16.280;2023-06-05T03:20:23;2.60;;;2.40;;
71759;SDS011;59919;48.112;16.280;2023-06-05T03:22:56;3.35;;;2.80;;
71759;SDS011;59919;48.112;16.280;2023-06-05T03:25:33;2.42;;;2.22;;
71759;SDS011;59919;48.112;16.280;2023-06-05T03:28:09;2.65;;;2.45;;
71759;SDS011;59919;48.112;16.280;2023-06-05T03:30:43;2.72;;;2.53;;
71759;SDS011;59919;48.112;16.280;2023-06-05T03:33:15;2.45;;;2.10;;
71759;SDS011;59919;48.112;16.280;2023-06-05T03:35:50;2.55;;;2.35;;
71759;SDS011;59919;48.112;16.280;2023-06-05T03:38:23;3.45;;;2.25;;
71759;SDS011;59919;48.112;16.280;2023-06-05T03:40:57;2.80;;;2.50;;
71759;SDS011;59919;48.112;16.280;2023-06-05T03:43:28;2.53;;;2.33;;
71759;SDS011;59919;48.112;16.280;2023-06-05T03:46:02;2.38;;;2.17;;
71759;SDS011;59919;48.112;16.280;2023-06-05T03:48:40;2.63;;;2.42;;
71759;SDS011;59919;48.112;16.280;2023-06-05T03:51:14;3.00;;;2.70;;
71759;SDS011;59919;48.112;16.280;2023-06-05T03:53:48;2.78;;;2.58;;
71759;SDS011;59919;48.112;16.280;2023-06-05T03:56:26;3.00;;;2.45;;
71759;SDS011;59919;48.112;16.280;2023-06-05T03:59:04;2.50;;;2.30;;
71759;SDS011;59919;48.112;16.280;2023-06-05T04:01:49;3.08;;;2.70;;
71759;SDS011;59919;48.112;16.280;2023-06-05T04:04:24;2.70;;;2.47;;
71759;SDS011;59919;48.112;16.280;2023-06-05T04:06:55;2.65;;;2.30;;
71759;SDS011;59919;48.112;16.280;2023-06-05T04:09:27;2.88;;;2.58;;
71759;SDS011;59919;48.112;16.280;2023-06-05T04:12:01;2.88;;;2.53;;
71759;SDS011;59919;48.112;16.280;2023-06-05T04:14:34;2.55;;;2.35;;
71759;SDS011;59919;48.112;16.280;2023-06-05T04:17:09;3.58;;;2.80;;
71759;SDS011;59919;48.112;16.280;2023-06-05T04:19:43;3.33;;;2.63;;
71759;SDS011;59919;48.112;16.280;2023-06-05T04:22:15;2.50;;;2.20;;
71759;SDS011;59919;48.112;16.280;2023-06-05T04:24:48;2.80;;;2.50;;
71759;SDS011;59919;48.112;16.280;2023-06-05T04:27:19;2.97;;;2.67;;
71759;SDS011;59919;48.112;16.280;2023-06-05T04:29:59;2.42;;;2.20;;
71759;SDS011;59919;48.112;16.280;2023-06-05T04:32:30;2.85;;;2.50;;
71759;SDS011;59919;48.112;16.280;2023-06-05T04:37:39;3.17;;;2.60;;
71759;SDS011;59919;48.112;16.280;2023-06-05T04:40:11;3.38;;;2.63;;
71759;SDS011;59919;48.112;16.280;2023-06-05T04:42:42;3.17;;;2.65;;
71759;SDS011;59919;48.112;16.280;2023-06-05T04:45:16;2.95;;;2.70;;
71759;SDS011;59919;48.112;16.280;2023-06-05T04:47:47;2.60;;;2.40;;
71759;SDS011;59919;48.112;16.280;2023-06-05T04:50:27;2.90;;;2.60;;
71759;SDS011;59919;48.112;16.280;2023-06-05T04:53:00;3.03;;;2.72;;
71759;SDS011;59919;48.112;16.280;2023-06-05T04:55:34;3.08;;;2.65;;
71759;SDS011;59919;48.112;16.280;2023-06-05T04:58:05;4.18;;;2.80;;
71759;SDS011;59919;48.112;16.280;2023-06-05T05:00:37;2.30;;;1.42;;
71759;SDS011;59919;48.112;16.280;2023-06-05T05:03:09;1.30;;;1.20;;
71759;SDS011;59919;48.112;16.280;2023-06-05T05:05:44;1.30;;;1.20;;
71759;SDS011;59919;48.112;16.280;2023-06-05T05:08:15;1.52;;;1.42;;
71759;SDS011;59919;48.112;16.280;2023-06-05T05:10:52;1.60;;;1.40;;
71759;SDS011;59919;48.112;16.280;2023-06-05T05:13:25;2.17;;;1.50;;
71759;SDS011;59919;48.112;16.280;2023-06-05T05:15:58;2.15;;;1.58;;
71759;SDS011;59919;48.112;16.280;2023-06-05T05:18:35;1.77;;;1.48;;
71759;SDS011;59919;48.112;16.280;2023-06-05T05:21:13;2.70;;;1.73;;
71759;SDS011;59919;48.112;16.280;2023-06-05T05:23:44;2.03;;;1.65;;
71759;SDS011;59919;48.112;16.280;2023-06-05T05:26:15;1.92;;;1.30;;
71759;SDS011;59919;48.112;16.280;2023-06-05T05:28:47;2.00;;;1.33;;
71759;SDS011;59919;48.112;16.280;2023-06-05T05:31:18;3.08;;;1.55;;
71759;SDS011;59919;48.112;16.280;2023-06-05T05:33:53;1.50;;;1.40;;
71759;SDS011;59919;48.112;16.280;2023-06-05T05:36:26;2.25;;;1.83;;
71759;SDS011;59919;48.112;16.280;2023-06-05T05:39:00;4.20;;;2.15;;
71759;SDS011;59919;48.112;16.280;2023-06-05T05:41:33;2.53;;;1.63;;
71759;SDS011;59919;48.112;16.280;2023-06-05T05:44:05;1.98;;;1.63;;
71759;SDS011;59919;48.112;16.280;2023-06-05T05:46:37;1.83;;;1.70;;
71759;SDS011;59919;48.112;16.280;2023-06-05T05:49:08;2.67;;;2.05;;
71759;SDS011;59919;48.112;16.280;2023-06-05T05:51:39;2.03;;;1.70;;
71759;SDS011;59919;48.112;16.280;2023-06-05T05:54:13;2.25;;;1.75;;
71759;SDS011;59919;48.112;16.280;2023-06-05T05:56:47;2.20;;;1.70;;
71759;SDS011;59919;48.112;16.280;2023-06-05T05:59:18;1.73;;;1.55;;
71759;SDS011;59919;48.112;16.280;2023-06-05T06:01:49;2.03;;;1.60;;
71759;SDS011;59919;48.112;16.280;2023-06-05T06:04:23;1.83;;;1.55;;
71759;SDS011;59919;48.112;16.280;2023-06-05T06:06:57;2.38;;;1.85;;
71759;SDS011;59919;48.112;16.280;2023-06-05T06:09:29;2.25;;;1.67;;
71759;SDS011;59919;48.112;16.280;2023-06-05T06:12:00;1.75;;;1.55;;
71759;SDS011;59919;48.112;16.280;2023-06-05T06:14:38;2.05;;;1.85;;
71759;SDS011;59919;48.112;16.280;2023-06-05T06:17:10;2.05;;;1.85;;
71759;SDS011;59919;48.112;16.280;2023-06-05T06:19:41;2.05;;;1.85;;
71759;SDS011;59919;48.112;16.280;2023-06-05T06:22:15;2.08;;;1.88;;
71759;SDS011;59919;48.112;16.280;2023-06-05T06:24:47;2.05;;;1.80;;
71759;SDS011;59919;48.112;16.280;2023-06-05T06:27:22;2.63;;;1.80;;
71759;SDS011;59919;48.112;16.280;2023-06-05T06:29:55;2.30;;;2.00;;
71759;SDS011;59919;48.112;16.280;2023-06-05T06:32:32;2.38;;;1.83;;
71759;SDS011;59919;48.112;16.280;2023-06-05T06:35:05;1.98;;;1.70;;
71759;SDS011;59919;48.112;16.280;2023-06-05T06:37:40;3.05;;;1.98;;
71759;SDS011;59919;48.112;16.280;2023-06-05T06:40:14;3.03;;;1.98;;
71759;SDS011;59919;48.112;16.280;2023-06-05T06:45:24;2.00;;;1.80;;
71759;SDS011;59919;48.112;16.280;2023-06-05T06:47:58;1.77;;;1.58;;
71759;SDS011;59919;48.112;16.280;2023-06-05T06:50:29;1.85;;;1.67;;
71759;SDS011;59919;48.112;16.280;2023-06-05T06:53:06;1.95;;;1.70;;
71759;SDS011;59919;48.112;16.280;2023-06-05T06:55:37;1.95;;;1.75;;
71759;SDS011;59919;48.112;16.280;2023-06-05T06:58:08;2.45;;;1.90;;
71759;SDS011;59919;48.112;16.280;2023-06-05T07:00:44;3.17;;;1.90;;
71759;SDS011;59919;48.112;16.280;2023-06-05T07:03:16;1.98;;;1.77;;
71759;SDS011;59919;48.112;16.280;2023-06-05T07:05:47;2.15;;;1.90;;
71759;SDS011;59919;48.112;16.280;2023-06-05T07:08:21;3.67;;;1.85;;
71759;SDS011;59919;48.112;16.280;2023-06-05T07:10:57;2.30;;;2.05;;
71759;SDS011;59919;48.112;16.280;2023-06-05T07:13:33;2.50;;;2.00;;
71759;SDS011;59919;48.112;16.280;2023-06-05T07:16:07;2.38;;;2.00;;
71759;SDS011;59919;48.112;16.280;2023-06-05T07:18:41;2.17;;;1.75;;
71759;SDS011;59919;48.112;16.280;2023-06-05T07:21:17;2.47;;;2.15;;
71759;SDS011;59919;48.112;16.280;2023-06-05T07:23:49;1.88;;;1.70;;
71759;SDS011;59919;48.112;16.280;2023-06-05T07:26:26;2.05;;;1.75;;
71759;SDS011;59919;48.112;16.280;2023-06-05T07:28:57;1.75;;;1.65;;
71759;SDS011;59919;48.112;16.280;2023-06-05T07:31:30;1.75;;;1.65;;
71759;SDS011;59919;48.112;16.280;2023-06-05T07:34:02;2.10;;;1.40;;
71759;SDS011;59919;48.112;16.280;2023-06-05T07:36:35;2.45;;;1.98;;
71759;SDS011;59919;48.112;16.280;2023-06-05T07:39:07;1.85;;;1.60;;
71759;SDS011;59919;48.112;16.280;2023-06-05T07:41:39;1.90;;;1.70;;
71759;SDS011;59919;48.112;16.280;2023-06-05T07:44:13;2.95;;;1.80;;
71759;SDS011;59919;48.112;16.280;2023-06-05T07:46:51;1.92;;;1.58;;
71759;SDS011;59919;48.112;16.280;2023-06-05T07:49:23;1.90;;;1.40;;
71759;SDS011;59919;48.112;16.280;2023-06-05T07:51:54;2.40;;;1.45;;
71759;SDS011;59919;48.112;16.280;2023-06-05T07:54:28;2.00;;;1.40;;
71759;SDS011;59919;48.112;16.280;2023-06-05T07:57:03;2.28;;;1.50;;
71759;SDS011;59919;48.112;16.280;2023-06-05T07:59:34;2.35;;;1.50;;
71759;SDS011;59919;48.112;16.280;2023-06-05T08:02:05;2.45;;;1.58;;
71759;SDS011;59919;48.112;16.280;2023-06-05T08:04:36;2.42;;;1.83;;
71759;SDS011;59919;48.112;16.280;2023-06-05T08:07:11;1.83;;;1.48;;
71759;SDS011;59919;48.112;16.280;2023-06-05T08:09:45;1.70;;;1.50;;
71759;SDS011;59919;48.112;16.280;2023-06-05T08:12:16;2.08;;;1.73;;
71759;SDS011;59919;48.112;16.280;2023-06-05T08:14:47;2.15;;;1.75;;
71759;SDS011;59919;48.112;16.280;2023-06-05T08:17:19;1.70;;;1.42;;
71759;SDS011;59919;48.112;16.280;2023-06-05T08:19:50;3.22;;;1.70;;
71759;SDS011;59919;48.112;16.280;2023-06-05T08:22:23;2.65;;;1.63;;
71759;SDS011;59919;48.112;16.280;2023-06-05T08:24:55;4.15;;;1.80;;
71759;SDS011;59919;48.112;16.280;2023-06-05T08:27:30;2.72;;;1.95;;
71759;SDS011;59919;48.112;16.280;2023-06-05T08:30:04;1.95;;;1.80;;
71759;SDS011;59919;48.112;16.280;2023-06-05T08:32:38;3.28;;;2.30;;
71759;SDS011;59919;48.112;16.280;2023-06-05T08:35:10;2.20;;;1.73;;
71759;SDS011;59919;48.112;16.280;2023-06-05T08:37:43;4.35;;;1.83;;
71759;SDS011;59919;48.112;16.280;2023-06-05T08:40:14;7.75;;;1.73;;
71759;SDS011;59919;48.112;16.280;2023-06-05T08:42:49;3.22;;;1.95;;
71759;SDS011;59919;48.112;16.280;2023-06-05T08:45:22;2.65;;;1.63;;
71759;SDS011;59919;48.112;16.280;2023-06-05T08:47:54;2.80;;;1.83;;
71759;SDS011;59919;48.112;16.280;2023-06-05T08:50:29;3.22;;;2.08;;
71759;SDS011;59919;48.112;16.280;2023-06-05T08:53:03;2.10;;;1.90;;
71759;SDS011;59919;48.112;16.280;2023-06-05T08:55:37;6.95;;;1.80;;
71759;SDS011;59919;48.112;16.280;2023-06-05T08:58:09;4.47;;;2.05;;
71759;SDS011;59919;48.112;16.280;2023-06-05T09:00:46;3.55;;;1.70;;
71759;SDS011;59919;48.112;16.280;2023-06-05T09:03:24;3.75;;;1.90;;
71759;SDS011;59919;48.112;16.280;2023-06-05T09:06:04;2.15;;;1.83;;
71759;SDS011;59919;48.112;16.280;2023-06-05T09:08:37;3.05;;;1.75;;
71759;SDS011;59919;48.112;16.280;2023-06-05T09:14:03;3.42;;;2.17;;
71759;SDS011;59919;48.112;16.280;2023-06-05T09:16:41;1.98;;;1.75;;
71759;SDS011;59919;48.112;16.280;2023-06-05T09:19:16;4.53;;;1.80;;
71759;SDS011;59919;48.112;16.280;2023-06-05T09:21:55;2.55;;;1.73;;
71759;SDS011;59919;48.112;16.280;2023-06-05T09:24:26;2.42;;;1.90;;
71759;SDS011;59919;48.112;16.280;2023-06-05T09:27:03;3.60;;;2.10;;
71759;SDS011;59919;48.112;16.280;2023-06-05T09:29:39;4.28;;;1.90;;
71759;SDS011;59919;48.112;16.280;2023-06-05T09:32:17;3.15;;;1.90;;
71759;SDS011;59919;48.112;16.280;2023-06-05T09:34:56;3.22;;;1.90;;
71759;SDS011;59919;48.112;16.280;2023-06-05T09:37:36;3.30;;;2.00;;
71759;SDS011;59919;48.112;16.280;2023-06-05T09:40:08;3.22;;;1.88;;
71759;SDS011;59919;48.112;16.280;2023-06-05T09:42:45;1.95;;;1.85;;
71759;SDS011;59919;48.112;16.280;2023-06-05T09:45:19;7.07;;;1.88;;
71759;SDS011;59919;48.112;16.280;2023-06-05T09:47:51;2.55;;;1.85;;
71759;SDS011;59919;48.112;16.280;2023-06-05T09:50:22;2.78;;;1.98;;
71759;SDS011;59919;48.112;16.280;2023-06-05T09:53:00;3.08;;;2.00;;
71759;SDS011;59919;48.112;16.280;2023-06-05T09:55:31;2.45;;;1.80;;
71759;SDS011;59919;48.112;16.280;2023-06-05T09:58:11;3.53;;;2.10;;
71759;SDS011;59919;48.112;16.280;2023-06-05T10:00:44;2.73;;;1.73;;
71759;SDS011;59919;48.112;16.280;2023-06-05T10:03:19;4.35;;;1.77;;
71759;SDS011;59919;48.112;16.280;2023-06-05T10:05:59;5.93;;;2.00;;
71759;SDS011;59919;48.112;16.280;2023-06-05T10:08:35;6.80;;;2.20;;
71759;SDS011;59919;48.112;16.280;2023-06-05T10:11:07;3.67;;;1.98;;
71759;SDS011;59919;48.112;16.280;2023-06-05T10:13:41;4.97;;;2.08;;
71759;SDS011;59919;48.112;16.280;2023-06-05T10:16:12;4.07;;;2.30;;
71759;SDS011;59919;48.112;16.280;2023-06-05T10:18:47;6.03;;;2.60;;
71759;SDS011;59919;48.112;16.280;2023-06-05T10:21:22;3.22;;;2.50;;
71759;SDS011;59919;48.112;16.280;2023-06-05T10:24:01;3.90;;;2.60;;
71759;SDS011;59919;48.112;16.280;2023-06-05T10:32:29;4.28;;;2.40;;
71759;SDS011;59919;48.112;16.280;2023-06-05T10:35:16;2.88;;;2.00;;
71759;SDS011;59919;48.112;16.280;2023-06-05T10:37:56;3.53;;;2.55;;
71759;SDS011;59919;48.112;16.280;2023-06-05T10:40:43;4.65;;;2.22;;
71759;SDS011;59919;48.112;16.280;2023-06-05T10:43:35;3.67;;;2.40;;
71759;SDS011;59919;48.112;16.280;2023-06-05T10:49:13;2.22;;;2.03;;
71759;SDS011;59919;48.112;16.280;2023-06-05T10:51:58;3.30;;;2.00;;
71759;SDS011;59919;48.112;16.280;2023-06-05T10:57:14;3.75;;;2.10;;
71759;SDS011;59919;48.112;16.280;2023-06-05T10:59:48;2.80;;;1.88;;
71759;SDS011;59919;48.112;16.280;2023-06-05T11:02:47;3.00;;;2.05;;
71759;SDS011;59919;48.112;16.280;2023-06-05T11:05:19;2.13;;;1.90;;
71759;SDS011;59919;48.112;16.280;2023-06-05T11:11:07;2.10;;;1.90;;
71759;SDS011;59919;48.112;16.280;2023-06-05T11:16:30;3.22;;;1.80;;
71759;SDS011;59919;48.112;16.280;2023-06-05T11:22:08;3.20;;;2.10;;
71759;SDS011;59919;48.112;16.280;2023-06-05T11:24:41;2.35;;;2.08;;
71759;SDS011;59919;48.112;16.280;2023-06-05T11:27:40;3.33;;;1.75;;
71759;SDS011;59919;48.112;16.280;2023-06-05T11:30:20;3.08;;;1.83;;
71759;SDS011;59919;48.112;16.280;2023-06-05T11:33:00;3.33;;;1.98;;
71759;SDS011;59919;48.112;16.280;2023-06-05T11:35:46;2.15;;;1.70;;
71759;SDS011;59919;48.112;16.280;2023-06-05T11:38:21;2.78;;;1.85;;
71759;SDS011;59919;48.112;16.280;2023-06-05T11:40:53;2.17;;;1.70;;
71759;SDS011;59919;48.112;16.280;2023-06-05T11:43:27;3.10;;;2.17;;
71759;SDS011;59919;48.112;16.280;2023-06-05T11:45:59;2.00;;;1.70;;
71759;SDS011;59919;48.112;16.280;2023-06-05T11:48:33;2.08;;;1.85;;
71759;SDS011;59919;48.112;16.280;2023-06-05T11:51:12;2.95;;;1.90;;
71759;SDS011;59919;48.112;16.280;2023-06-05T11:53:46;2.38;;;1.80;;
71759;SDS011;59919;48.112;16.280;2023-06-05T11:56:20;1.95;;;1.75;;
71759;SDS011;59919;48.112;16.280;2023-06-05T11:58:55;2.15;;;1.80;;
71759;SDS011;59919;48.112;16.280;2023-06-05T12:01:28;2.28;;;1.85;;
71759;SDS011;59919;48.112;16.280;2023-06-05T12:04:03;3.38;;;1.75;;
71759;SDS011;59919;48.112;16.280;2023-06-05T12:06:41;2.30;;;1.90;;
71759;SDS011;59919;48.112;16.280;2023-06-05T12:09:19;2.42;;;1.88;;
71759;SDS011;59919;48.112;16.280;2023-06-05T12:11:56;3.40;;;1.90;;
71759;SDS011;59919;48.112;16.280;2023-06-05T12:14:38;2.10;;;1.90;;
71759;SDS011;59919;48.112;16.280;2023-06-05T12:17:12;2.00;;;1.80;;
71759;SDS011;59919;48.112;16.280;2023-06-05T12:19:43;2.55;;;2.03;;
71759;SDS011;59919;48.112;16.280;2023-06-05T12:22:25;1.92;;;1.60;;
71759;SDS011;59919;48.112;16.280;2023-06-05T12:24:59;3.15;;;2.03;;
71759;SDS011;59919;48.112;16.280;2023-06-05T12:27:50;2.10;;;1.70;;
71759;SDS011;59919;48.112;16.280;2023-06-05T12:30:23;1.85;;;1.63;;
71759;SDS011;59919;48.112;16.280;2023-06-05T12:32:54;2.92;;;2.03;;
71759;SDS011;59919;48.112;16.280;2023-06-05T12:35:35;2.30;;;1.67;;
71759;SDS011;59919;48.112;16.280;2023-06-05T12:38:06;2.78;;;2.00;;
71759;SDS011;59919;48.112;16.280;2023-06-05T12:40:38;2.35;;;1.88;;
71759;SDS011;59919;48.112;16.280;2023-06-05T12:43:16;2.05;;;1.80;;
71759;SDS011;59919;48.112;16.280;2023-06-05T12:45:50;2.05;;;1.70;;
71759;SDS011;59919;48.112;16.280;2023-06-05T12:48:22;2.63;;;1.65;;
71759;SDS011;59919;48.112;16.280;2023-06-05T12:50:58;1.57;;;1.47;;
71759;SDS011;59919;48.112;16.280;2023-06-05T12:53:32;1.70;;;1.55;;
71759;SDS011;59919;48.112;16.280;2023-06-05T12:56:08;1.55;;;1.45;;
71759;SDS011;59919;48.112;16.280;2023-06-05T12:58:41;1.70;;;1.55;;
71759;SDS011;59919;48.112;16.280;2023-06-05T13:01:15;1.80;;;1.60;;
71759;SDS011;59919;48.112;16.280;2023-06-05T13:03:46;2.08;;;1.70;;
71759;SDS011;59919;48.112;16.280;2023-06-05T13:06:18;2.08;;;1.70;;
71759;SDS011;59919;48.112;16.280;2023-06-05T13:08:49;3.08;;;2.30;;
71759;SDS011;59919;48.112;16.280;2023-06-05T13:11:22;2.35;;;1.58;;
71759;SDS011;59919;48.112;16.280;2023-06-05T13:13:53;2.30;;;1.75;;
71759;SDS011;59919;48.112;16.280;2023-06-05T13:16:26;2.00;;;1.58;;
71759;SDS011;59919;48.112;16.280;2023-06-05T13:18:58;2.63;;;1.60;;
71759;SDS011;59919;48.112;16.280;2023-06-05T13:21:31;2.30;;;1.70;;
71759;SDS011;59919;48.112;16.280;2023-06-05T13:24:02;2.47;;;1.85;;
71759;SDS011;59919;48.112;16.280;2023-06-05T13:26:33;2.28;;;1.70;;
71759;SDS011;59919;48.112;16.280;2023-06-05T13:29:05;2.40;;;1.80;;
71759;SDS011;59919;48.112;16.280;2023-06-05T13:31:42;10.20;;;2.15;;
71759;SDS011;59919;48.112;16.280;2023-06-05T13:34:13;9.20;;;2.30;;
71759;SDS011;59919;48.112;16.280;2023-06-05T13:36:44;8.45;;;2.60;;
71759;SDS011;59919;48.112;16.280;2023-06-05T13:39:20;13.32;;;2.45;;
71759;SDS011;59919;48.112;16.280;2023-06-05T13:41:51;9.85;;;1.95;;
71759;SDS011;59919;48.112;16.280;2023-06-05T13:44:25;5.93;;;2.03;;
71759;SDS011;59919;48.112;16.280;2023-06-05T13:46:56;8.75;;;2.05;;
71759;SDS011;59919;48.112;16.280;2023-06-05T13:49:27;11.60;;;2.28;;
71759;SDS011;59919;48.112;16.280;2023-06-05T13:52:01;6.55;;;2.15;;
71759;SDS011;59919;48.112;16.280;2023-06-05T13:54:33;4.93;;;2.13;;
71759;SDS011;59919;48.112;16.280;2023-06-05T13:57:04;7.05;;;1.80;;
71759;SDS011;59919;48.112;16.280;2023-06-05T13:59:36;4.72;;;2.20;;
71759;SDS011;59919;48.112;16.280;2023-06-05T14:02:07;6.38;;;2.15;;
71759;SDS011;59919;48.112;16.280;2023-06-05T14:04:40;5.70;;;2.50;;
71759;SDS011;59919;48.112;16.280;2023-06-05T14:07:13;4.10;;;1.67;;
71759;SDS011;59919;48.112;16.280;2023-06-05T14:09:44;5.90;;;1.88;;
71759;SDS011;59919;48.112;16.280;2023-06-05T14:12:16;5.55;;;1.75;;
71759;SDS011;59919;48.112;16.280;2023-06-05T14:14:48;5.95;;;2.17;;
71759;SDS011;59919;48.112;16.280;2023-06-05T14:17:24;2.35;;;1.45;;
71759;SDS011;59919;48.112;16.280;2023-06-05T14:19:55;6.70;;;2.30;;
71759;SDS011;59919;48.112;16.280;2023-06-05T14:22:26;2.65;;;2.00;;
71759;SDS011;59919;48.112;16.280;2023-06-05T14:25:00;3.72;;;2.20;;
71759;SDS011;59919;48.112;16.280;2023-06-05T14:27:31;3.13;;;1.92;;
71759;SDS011;59919;48.112;16.280;2023-06-05T14:30:02;3.42;;;1.75;;
71759;SDS011;59919;48.112;16.280;2023-06-05T14:32:34;6.20;;;2.10;;
71759;SDS011;59919;48.112;16.280;2023-06-05T14:35:08;6.45;;;1.90;;
71759;SDS011;59919;48.112;16.280;2023-06-05T14:37:39;3.25;;;1.92;;
71759;SDS011;59919;48.112;16.280;2023-06-05T14:40:11;5.50;;;1.98;;
71759;SDS011;59919;48.112;16.280;2023-06-05T14:42:50;3.97;;;2.15;;
71759;SDS011;59919;48.112;16.280;2023-06-05T14:45:24;4.35;;;1.98;;
71759;SDS011;59919;48.112;16.280;2023-06-05T14:47:57;2.50;;;2.00;;
71759;SDS011;59919;48.112;16.280;2023-06-05T14:50:31;4.38;;;2.08;;
71759;SDS011;59919;48.112;16.280;2023-06-05T14:53:02;3.22;;;2.17;;
71759;SDS011;59919;48.112;16.280;2023-06-05T14:55:35;2.50;;;2.00;;
71759;SDS011;59919;48.112;16.280;2023-06-05T14:58:09;3.15;;;2.17;;
71759;SDS011;59919;48.112;16.280;2023-06-05T15:00:42;4.65;;;2.60;;
71759;SDS011;59919;48.112;16.280;2023-06-05T15:03:13;2.85;;;2.10;;
71759;SDS011;59919;48.112;16.280;2023-06-05T15:05:45;3.47;;;2.10;;
71759;SDS011;59919;48.112;16.280;2023-06-05T15:08:19;6.05;;;2.00;;
71759;SDS011;59919;48.112;16.280;2023-06-05T15:10:52;4.97;;;2.25;;
71759;SDS011;59919;48.112;16.280;2023-06-05T15:13:23;3.65;;;2.22;;
71759;SDS011;59919;48.112;16.280;2023-06-05T15:15:54;4.38;;;2.20;;
71759;SDS011;59919;48.112;16.280;2023-06-05T15:18:30;4.30;;;2.60;;
71759;SDS011;59919;48.112;16.280;2023-06-05T15:21:03;3.40;;;2.25;;
71759;SDS011;59919;48.112;16.280;2023-06-05T15:23:36;5.22;;;2.40;;
71759;SDS011;59919;48.112;16.280;2023-06-05T15:26:07;4.20;;;2.33;;
71759;SDS011;59919;48.112;16.280;2023-06-05T15:28:38;5.43;;;2.50;;
71759;SDS011;59919;48.112;16.280;2023-06-05T15:31:09;4.72;;;2.40;;
71759;SDS011;59919;48.112;16.280;2023-06-05T15:33:42;3.20;;;2.40;;
71759;SDS011;59919;48.112;16.280;2023-06-05T15:36:16;3.92;;;2.10;;
71759;SDS011;59919;48.112;16.280;2023-06-05T15:38:47;3.92;;;2.40;;
71759;SDS011;59919;48.112;16.280;2023-06-05T15:41:21;3.60;;;1.98;;
71759;SDS011;59919;48.112;16.280;2023-06-05T15:43:53;4.70;;;2.25;;
71759;SDS011;59919;48.112;16.280;2023-06-05T15:46:27;2.97;;;2.22;;